Time;durP1;ratioP1;P1;durP2;ratioP2;P2;SDS_P1;SDS_P2;PMS_P1;PMS_P2;Temp;Humidity;BMP_temperature;BMP_pressure;BME280_temperature;BME280_humidity;BME280_pressure;Samples;Min_cycle;Max_cycle;Signal;HPM_P1;HPM_P2
2021/10/23 00:01:42;;;;;;;5.82;1.05;;;;;;;4.89;nan;101510.75;5101799;28;20027;-83
2021/10/23 00:04:08;;;;;;;2.58;1.08;;;;;;;4.84;nan;101512.13;5103214;28;20022;-82
2021/10/23 00:06:33;;;;;;;5.50;1.35;;;;;;;4.80;nan;101523.34;5095393;28;20637;-82
2021/10/23 00:08:59;;;;;;;5.43;1.20;;;;;;;4.90;nan;101523.84;5085789;28;20028;-82
2021/10/23 00:11:24;;;;;;;7.50;1.17;;;;;;;4.82;nan;101526.63;5086015;28;20150;-81
2021/10/23 00:13:50;;;;;;;9.95;1.70;;;;;;;4.81;nan;101535.59;5086460;28;20039;-82
2021/10/23 00:16:15;;;;;;;4.35;1.08;;;;;;;4.82;nan;101543.38;5068035;28;20062;-82
2021/10/23 00:18:41;;;;;;;13.93;2.15;;;;;;;4.77;nan;101531.69;5085106;28;20027;-82
2021/10/23 00:21:07;;;;;;;14.40;1.92;;;;;;;4.72;nan;101536.75;5066373;28;20024;-82
2021/10/23 00:23:32;;;;;;;6.03;1.35;;;;;;;4.77;nan;101548.44;5066302;28;20170;-81
2021/10/23 00:25:58;;;;;;;4.75;1.75;;;;;;;4.70;nan;101552.06;5084763;28;20451;-83
2021/10/23 00:28:23;;;;;;;5.60;1.20;;;;;;;4.73;nan;101556.97;5070142;28;20036;-81
2021/10/23 00:30:49;;;;;;;8.35;1.00;;;;;;;4.66;nan;101548.94;5065589;28;20161;-82
2021/10/23 00:33:15;;;;;;;7.70;1.63;;;;;;;4.72;nan;101552.69;5082068;28;20031;-82
2021/10/23 00:35:40;;;;;;;6.25;1.20;;;;;;;4.75;nan;101552.31;5069501;28;20055;-81
2021/10/23 00:38:06;;;;;;;4.45;1.02;;;;;;;4.73;nan;101562.28;5084080;28;20375;-82
2021/10/23 00:40:32;;;;;;;8.02;0.82;;;;;;;4.66;nan;101559.56;5066626;28;20169;-82
2021/10/23 00:42:59;;;;;;;6.22;1.48;;;;;;;4.68;nan;101559.41;5090168;28;20038;-82
2021/10/23 00:45:25;;;;;;;13.32;2.33;;;;;;;4.65;nan;101579.16;5063964;28;20069;-82
2021/10/23 00:47:50;;;;;;;3.10;1.42;;;;;;;4.76;nan;101562.72;5085956;28;20480;-82
2021/10/23 00:50:16;;;;;;;4.55;1.20;;;;;;;4.76;nan;101564.56;5085720;28;20042;-81
2021/10/23 00:52:42;;;;;;;4.05;1.30;;;;;;;4.76;nan;101561.91;5071989;28;20047;-82
2021/10/23 00:55:09;;;;;;;5.70;0.70;;;;;;;4.73;nan;101572.91;5067090;28;20020;-82
2021/10/23 00:57:34;;;;;;;3.20;1.30;;;;;;;4.79;nan;101557.03;5069365;28;20197;-81
2021/10/23 01:00:00;;;;;;;7.60;1.23;;;;;;;4.83;nan;101565.44;5067875;28;20150;-81
2021/10/23 01:02:25;;;;;;;6.30;1.60;;;;;;;4.66;nan;101566.69;5084179;28;20031;-82
2021/10/23 01:04:51;;;;;;;8.18;1.63;;;;;;;4.64;nan;101568.72;5072416;28;21012;-82
2021/10/23 01:07:17;;;;;;;10.82;1.58;;;;;;;4.78;nan;101566.00;5071589;28;20031;-81
2021/10/23 01:09:44;;;;;;;8.15;1.23;;;;;;;4.87;nan;101566.72;5073294;28;20028;-81
2021/10/23 01:12:12;;;;;;;6.28;1.10;;;;;;;4.79;nan;101578.28;5069920;28;20035;-83
2021/10/23 01:14:40;;;;;;;9.32;1.48;;;;;;;4.85;nan;101571.41;5068106;28;20032;-82
2021/10/23 01:17:07;;;;;;;8.85;1.30;;;;;;;4.87;nan;101582.66;5080432;28;20016;-82
2021/10/23 01:19:32;;;;;;;10.18;1.20;;;;;;;4.84;nan;101572.38;5080735;28;20085;-82
2021/10/23 01:21:58;;;;;;;6.28;1.60;;;;;;;4.85;nan;101574.06;5068468;28;20027;-82
2021/10/23 01:24:24;;;;;;;6.13;0.82;;;;;;;4.73;nan;101588.84;5087028;28;20123;-82
2021/10/23 01:26:50;;;;;;;5.68;1.13;;;;;;;4.65;nan;101589.75;5071419;28;20039;-82
2021/10/23 01:29:18;;;;;;;8.43;1.20;;;;;;;4.61;nan;101590.34;5084581;28;20031;-82
2021/10/23 01:31:47;;;;;;;5.70;1.08;;;;;;;4.58;nan;101609.28;5087005;28;20038;-82
2021/10/23 01:34:24;;;;;;;7.45;1.33;;;;;;;4.63;nan;101594.44;5070176;28;20031;-81
2021/10/23 01:36:53;;;;;;;6.25;1.08;;;;;;;4.64;nan;101597.91;5070529;28;20051;-82
2021/10/23 01:39:19;;;;;;;6.18;1.48;;;;;;;4.69;nan;101599.03;5086814;28;20093;-82
2021/10/23 01:41:45;;;;;;;7.00;1.50;;;;;;;4.63;nan;101609.53;5087758;28;20028;-81
2021/10/23 01:44:13;;;;;;;9.18;1.45;;;;;;;4.64;nan;101608.53;5070317;28;20040;-82
2021/10/23 01:46:41;;;;;;;5.97;1.05;;;;;;;4.62;nan;101607.91;5087212;28;20020;-82
2021/10/23 01:49:07;;;;;;;9.85;1.50;;;;;;;4.60;nan;101615.25;5067454;28;20028;-82
2021/10/23 01:51:34;;;;;;;10.20;1.77;;;;;;;4.59;nan;101624.22;5076664;28;20119;-82
2021/10/23 01:54:17;;;;;;;5.78;1.45;;;;;;;4.59;nan;101627.69;5089202;28;20028;-82
2021/10/23 01:56:43;;;;;;;5.63;1.40;;;;;;;4.75;nan;101624.81;5085507;28;20138;-82
2021/10/23 01:59:09;;;;;;;8.75;1.33;;;;;;;4.79;nan;101627.91;5068898;28;20108;-82
2021/10/23 02:01:35;;;;;;;8.23;1.05;;;;;;;4.65;nan;101618.13;5074255;28;20470;-81
2021/10/23 02:04:01;;;;;;;5.32;1.13;;;;;;;4.70;nan;101631.69;5070334;28;20093;-81
2021/10/23 02:06:27;;;;;;;8.05;1.30;;;;;;;4.60;nan;101639.13;5074195;28;20951;-82
2021/10/23 02:08:52;;;;;;;10.65;1.73;;;;;;;4.66;nan;101641.84;5070495;28;20032;-82
2021/10/23 02:11:19;;;;;;;9.18;1.83;;;;;;;4.61;nan;101643.41;5069473;28;20038;-82
2021/10/23 02:13:45;;;;;;;13.05;1.17;;;;;;;4.60;nan;101647.09;5100191;28;20031;-82
2021/10/23 02:16:11;;;;;;;10.95;1.85;;;;;;;4.65;nan;101653.47;5103759;27;20055;-82
2021/10/23 02:18:36;;;;;;;9.10;1.77;;;;;;;4.70;nan;101655.59;5092318;28;20077;-82
2021/10/23 02:21:02;;;;;;;9.02;1.70;;;;;;;4.73;nan;101652.56;5100947;28;20642;-82
2021/10/23 02:23:28;;;;;;;4.82;0.93;;;;;;;4.79;nan;101670.38;5089907;27;20023;-82
2021/10/23 02:25:53;;;;;;;11.75;1.35;;;;;;;4.91;nan;101660.94;5111099;27;20458;-82
2021/10/23 02:28:19;;;;;;;2.95;1.10;;;;;;;4.90;nan;101661.94;5079721;28;20023;-82
2021/10/23 02:30:44;;;;;;;9.55;2.40;;;;;;;4.87;nan;101667.63;5096625;28;20130;-82
2021/10/23 02:33:10;;;;;;;11.88;2.15;;;;;;;4.78;nan;101664.25;5089758;27;20058;-82
2021/10/23 02:35:36;;;;;;;6.13;1.30;;;;;;;4.90;nan;101663.78;5107023;27;20030;-82
2021/10/23 02:38:02;;;;;;;4.70;1.45;;;;;;;4.84;nan;101662.66;5091481;28;20027;-82
2021/10/23 02:40:27;;;;;;;8.77;1.05;;;;;;;4.87;nan;101675.59;5090875;28;20031;-82
2021/10/23 02:42:53;;;;;;;11.30;0.98;;;;;;;4.90;nan;101671.75;5082854;28;20122;-82
2021/10/23 02:45:18;;;;;;;3.88;1.02;;;;;;;4.93;nan;101669.53;5086070;28;20024;-82
2021/10/23 02:47:44;;;;;;;8.45;1.23;;;;;;;4.91;nan;101674.19;5092740;28;20068;-82
2021/10/23 02:50:09;;;;;;;11.00;1.30;;;;;;;5.00;nan;101675.72;5088543;28;20023;-82
2021/10/23 02:52:36;;;;;;;7.43;1.33;;;;;;;4.88;nan;101687.84;5086866;28;20469;-82
2021/10/23 02:55:02;;;;;;;8.00;2.10;;;;;;;4.86;nan;101689.88;5104791;27;20027;-82
2021/10/23 02:57:27;;;;;;;9.63;2.08;;;;;;;4.93;nan;101682.78;5084288;28;20030;-82
2021/10/23 02:59:53;;;;;;;10.38;1.38;;;;;;;4.89;nan;101694.81;5091774;28;20123;-82
2021/10/23 03:02:18;;;;;;;9.45;2.33;;;;;;;5.00;nan;101696.97;5106420;28;20051;-81
2021/10/23 03:04:44;;;;;;;8.45;1.67;;;;;;;4.90;nan;101698.28;5104501;28;20408;-82
2021/10/23 03:07:09;;;;;;;10.52;1.25;;;;;;;5.02;nan;101686.16;5082579;28;20118;-82
2021/10/23 03:09:35;;;;;;;10.57;1.70;;;;;;;5.04;nan;101708.06;5098785;27;20030;-82
2021/10/23 03:12:01;;;;;;;9.50;1.27;;;;;;;5.12;nan;101713.25;5106331;28;20026;-82
2021/10/23 03:14:27;;;;;;;8.30;1.30;;;;;;;5.07;nan;101703.19;5083412;28;20038;-82
2021/10/23 03:16:52;;;;;;;7.10;1.23;;;;;;;5.05;nan;101707.88;5086117;28;20023;-82
2021/10/23 03:19:18;;;;;;;10.40;1.60;;;;;;;5.02;nan;101716.19;5081850;28;20524;-82
2021/10/23 03:21:43;;;;;;;13.85;2.22;;;;;;;5.07;nan;101713.00;5104639;28;20393;-82
2021/10/23 03:24:09;;;;;;;11.85;1.48;;;;;;;5.13;nan;101718.34;5086134;28;20024;-81
2021/10/23 03:26:35;;;;;;;10.52;2.00;;;;;;;5.09;nan;101719.75;5086496;28;20505;-82
2021/10/23 03:29:01;;;;;;;10.85;1.20;;;;;;;5.08;nan;101728.72;5085706;28;20035;-82
2021/10/23 03:31:26;;;;;;;8.05;1.92;;;;;;;5.07;nan;101734.25;5087882;28;20527;-82
2021/10/23 03:33:52;;;;;;;8.15;1.25;;;;;;;5.04;nan;101732.78;5102011;28;20031;-81
2021/10/23 03:36:18;;;;;;;6.50;1.25;;;;;;;4.96;nan;101735.53;5100781;28;20043;-82
2021/10/23 03:38:43;;;;;;;7.35;1.17;;;;;;;4.96;nan;101738.19;5097476;28;20508;-81
2021/10/23 03:41:08;;;;;;;8.23;1.40;;;;;;;4.90;nan;101736.28;5084211;28;20038;-82
2021/10/23 03:43:34;;;;;;;10.48;1.95;;;;;;;4.81;nan;101740.03;5106556;28;20034;-83
2021/10/23 03:46:00;;;;;;;6.88;1.23;;;;;;;4.89;nan;101739.97;5081612;28;20027;-82
2021/10/23 03:48:26;;;;;;;9.18;1.40;;;;;;;4.95;nan;101735.72;5088350;28;20953;-82
2021/10/23 03:50:52;;;;;;;6.68;1.45;;;;;;;4.97;nan;101754.94;5101843;28;20027;-82
2021/10/23 03:53:17;;;;;;;7.93;1.70;;;;;;;5.11;nan;101746.94;5084458;28;20038;-82
2021/10/23 03:55:43;;;;;;;8.52;1.38;;;;;;;5.10;nan;101758.59;5085443;28;20028;-82
2021/10/23 03:58:10;;;;;;;5.07;1.95;;;;;;;5.08;nan;101755.28;5084254;28;20612;-82
2021/10/23 04:00:36;;;;;;;6.75;1.00;;;;;;;5.08;nan;101749.16;5103862;28;20019;-82
2021/10/23 04:03:02;;;;;;;6.18;1.48;;;;;;;5.16;nan;101765.78;5086931;28;20417;-82
2021/10/23 04:05:28;;;;;;;9.43;1.63;;;;;;;5.09;nan;101754.28;5083407;28;20102;-82
2021/10/23 04:07:53;;;;;;;9.25;1.80;;;;;;;5.07;nan;101764.28;5088472;28;20023;-82
2021/10/23 04:10:19;;;;;;;6.95;1.38;;;;;;;5.13;nan;101770.66;5102727;28;20088;-81
2021/10/23 04:12:44;;;;;;;7.45;1.40;;;;;;;5.04;nan;101761.19;5104701;28;20023;-82
2021/10/23 04:15:10;;;;;;;7.72;1.58;;;;;;;4.99;nan;101775.00;5101143;28;20023;-82
2021/10/23 04:17:36;;;;;;;10.52;1.50;;;;;;;4.95;nan;101768.41;5082361;28;20024;-82
2021/10/23 04:20:03;;;;;;;11.43;1.60;;;;;;;4.93;nan;101765.13;5100427;28;20016;-82
2021/10/23 04:22:28;;;;;;;16.90;2.58;;;;;;;4.92;nan;101771.44;5110701;28;20027;-82
2021/10/23 04:24:54;;;;;;;5.75;2.08;;;;;;;4.84;nan;101787.47;5094060;28;20034;-83
2021/10/23 04:27:20;;;;;;;4.50;1.60;;;;;;;4.87;nan;101791.59;5103744;28;20032;-83
2021/10/23 04:29:46;;;;;;;8.63;1.13;;;;;;;4.80;nan;101787.00;5107684;28;20031;-83
2021/10/23 04:32:11;;;;;;;7.47;1.10;;;;;;;4.83;nan;101793.78;5088272;28;20436;-83
2021/10/23 04:34:36;;;;;;;9.25;1.52;;;;;;;4.75;nan;101799.22;5108787;28;20023;-83
2021/10/23 04:37:03;;;;;;;7.55;1.45;;;;;;;4.86;nan;101817.34;5093665;28;20024;-82
2021/10/23 04:39:29;;;;;;;6.28;1.42;;;;;;;4.81;nan;101804.59;5089081;28;20032;-84
2021/10/23 04:41:55;;;;;;;10.35;1.33;;;;;;;4.81;nan;101814.38;5103330;28;20119;-83
2021/10/23 04:44:21;;;;;;;12.50;1.63;;;;;;;4.94;nan;101827.03;5107403;28;20825;-84
2021/10/23 04:46:47;;;;;;;5.80;1.75;;;;;;;4.85;nan;101821.81;5092438;28;20023;-83
2021/10/23 04:49:13;;;;;;;6.32;1.45;;;;;;;4.81;nan;101820.53;5086643;28;20023;-83
2021/10/23 04:51:38;;;;;;;7.00;1.50;;;;;;;4.99;nan;101845.88;5092776;28;20925;-83
2021/10/23 04:54:04;;;;;;;7.40;2.15;;;;;;;5.15;nan;101843.03;5091418;28;20028;-82
2021/10/23 04:56:29;;;;;;;11.05;1.52;;;;;;;5.11;nan;101839.94;5083493;28;20038;-83
2021/10/23 04:58:55;;;;;;;4.60;1.38;;;;;;;5.19;nan;101844.31;5102108;28;20031;-82
2021/10/23 05:01:21;;;;;;;10.85;1.88;;;;;;;5.23;nan;101850.09;5106589;28;20035;-83
2021/10/23 05:03:46;;;;;;;13.45;1.80;;;;;;;5.15;nan;101841.19;5108203;28;20043;-83
2021/10/23 05:06:12;;;;;;;22.33;2.83;;;;;;;5.22;nan;101845.78;5096204;28;20507;-83
2021/10/23 05:08:38;;;;;;;14.57;2.03;;;;;;;5.13;nan;101845.88;5092528;28;20065;-83
2021/10/23 05:11:03;;;;;;;13.35;2.35;;;;;;;5.09;nan;101844.59;5099594;27;20386;-83
2021/10/23 05:13:29;;;;;;;13.52;1.92;;;;;;;5.04;nan;101846.19;5105285;27;20032;-82
2021/10/23 05:15:54;;;;;;;13.13;2.03;;;;;;;5.08;nan;101848.28;5086959;28;20112;-83
2021/10/23 05:18:20;;;;;;;8.07;1.63;;;;;;;5.00;nan;101844.88;5108629;28;20107;-83
2021/10/23 05:20:45;;;;;;;8.88;1.45;;;;;;;5.05;nan;101850.47;5099615;28;20515;-83
2021/10/23 05:23:11;;;;;;;7.45;1.95;;;;;;;5.03;nan;101844.53;5105822;28;20035;-82
2021/10/23 05:25:36;;;;;;;13.20;2.15;;;;;;;4.99;nan;101864.47;5088388;28;20027;-83
2021/10/23 05:28:02;;;;;;;14.35;2.33;;;;;;;5.02;nan;101870.25;5102035;28;20028;-83
2021/10/23 05:30:28;;;;;;;10.60;1.63;;;;;;;5.09;nan;101871.16;5087595;28;20030;-82
2021/10/23 05:32:53;;;;;;;8.23;1.60;;;;;;;5.03;nan;101877.22;5103732;28;20027;-83
2021/10/23 05:35:19;;;;;;;7.78;1.90;;;;;;;4.99;nan;101864.47;5089325;28;20072;-83
2021/10/23 05:37:44;;;;;;;8.93;1.77;;;;;;;5.03;nan;101887.03;5090346;28;20054;-83
2021/10/23 05:40:11;;;;;;;8.48;1.85;;;;;;;4.97;nan;101875.28;5091506;28;20024;-83
2021/10/23 05:42:37;;;;;;;6.40;1.48;;;;;;;5.04;nan;101878.06;5088469;28;20039;-82
2021/10/23 05:45:02;;;;;;;6.45;1.35;;;;;;;4.96;nan;101884.25;5092651;28;20378;-84
2021/10/23 05:47:28;;;;;;;10.70;1.45;;;;;;;4.89;nan;101880.69;5093526;28;20028;-83
2021/10/23 05:49:53;;;;;;;6.47;1.13;;;;;;;4.89;nan;101883.34;5087915;28;20564;-83
2021/10/23 05:52:19;;;;;;;9.50;1.85;;;;;;;4.88;nan;101902.13;5089989;28;20028;-83
2021/10/23 05:54:44;;;;;;;5.22;1.20;;;;;;;5.07;nan;101896.28;5088508;28;20026;-83
2021/10/23 05:57:11;;;;;;;12.23;1.73;;;;;;;5.01;nan;101905.78;5103940;28;20167;-83
2021/10/23 05:59:41;;;;;;;9.63;1.85;;;;;;;5.12;nan;101909.81;5090248;28;20027;-83
2021/10/23 06:02:28;;;;;;;5.03;1.98;;;;;;;5.14;nan;101921.09;5094733;28;20035;-83
2021/10/23 06:04:55;;;;;;;6.97;1.42;;;;;;;5.20;nan;101914.19;5099436;28;20099;-83
2021/10/23 06:07:24;;;;;;;9.07;1.52;;;;;;;5.23;nan;101929.81;5088667;28;20028;-83
2021/10/23 06:09:50;;;;;;;9.82;2.00;;;;;;;5.28;nan;101920.25;5084751;28;20019;-83
2021/10/23 06:12:16;;;;;;;15.75;1.92;;;;;;;5.28;nan;101930.88;5107244;28;20476;-83
2021/10/23 06:14:41;;;;;;;4.80;1.27;;;;;;;5.41;nan;101919.63;5087190;28;20482;-83
2021/10/23 06:17:07;;;;;;;6.32;1.83;;;;;;;5.32;nan;101902.09;5108744;28;20027;-83
2021/10/23 06:19:34;;;;;;;4.68;1.52;;;;;;;5.32;nan;101912.75;5104891;28;20102;-84
2021/10/23 06:22:00;;;;;;;11.18;1.75;;;;;;;5.22;nan;101922.84;5104193;28;20097;-84
2021/10/23 06:24:26;;;;;;;6.35;1.27;;;;;;;5.15;nan;101923.56;5091955;28;20077;-83
2021/10/23 06:26:52;;;;;;;6.47;1.35;;;;;;;5.17;nan;101934.00;5090581;28;20020;-82
2021/10/23 06:29:17;;;;;;;9.93;1.60;;;;;;;5.15;nan;101934.19;5099650;28;20019;-83
2021/10/23 06:31:43;;;;;;;9.35;2.10;;;;;;;5.19;nan;101942.59;5088875;28;20036;-83
2021/10/23 06:34:08;;;;;;;8.05;2.03;;;;;;;5.24;nan;101947.41;5097540;28;20020;-83
2021/10/23 06:36:34;;;;;;;8.32;1.48;;;;;;;5.24;nan;101948.22;5088490;28;20028;-83
2021/10/23 06:38:59;;;;;;;8.77;1.58;;;;;;;5.23;nan;101956.38;5103331;28;20476;-84
2021/10/23 06:41:25;;;;;;;8.55;1.70;;;;;;;5.37;nan;101963.50;5102451;28;20145;-82
2021/10/23 06:43:50;;;;;;;4.88;1.60;;;;;;;5.38;nan;101967.81;5087352;28;20089;-82
2021/10/23 06:46:16;;;;;;;5.85;2.05;;;;;;;5.29;nan;101967.09;5105695;28;20024;-84
2021/10/23 06:48:41;;;;;;;6.65;1.90;;;;;;;5.32;nan;101965.88;5087908;28;20019;-83
2021/10/23 06:51:07;;;;;;;10.13;1.75;;;;;;;5.24;nan;101976.63;5089030;28;20111;-82
2021/10/23 06:53:33;;;;;;;8.05;2.05;;;;;;;5.30;nan;101989.16;5089053;28;20024;-83
2021/10/23 06:55:58;;;;;;;8.27;1.20;;;;;;;5.38;nan;101978.44;5089546;28;20023;-83
2021/10/23 06:58:24;;;;;;;10.90;1.67;;;;;;;5.51;nan;101980.44;5108604;28;20095;-82
2021/10/23 07:00:49;;;;;;;10.02;1.88;;;;;;;5.53;nan;101994.38;5101893;28;20038;-82
2021/10/23 07:03:18;;;;;;;5.18;1.50;;;;;;;5.54;nan;101986.22;5086436;28;20070;-83
2021/10/23 07:05:44;;;;;;;10.48;1.75;;;;;;;5.49;nan;101993.94;5088504;28;20028;-83
2021/10/23 07:08:09;;;;;;;8.07;2.03;;;;;;;5.47;nan;101995.94;5085315;28;20652;-83
2021/10/23 07:10:35;;;;;;;10.70;1.30;;;;;;;5.59;nan;102005.13;5102038;28;20025;-82
2021/10/23 07:13:02;;;;;;;4.43;1.63;;;;;;;5.64;nan;102000.06;5086645;28;20165;-83
2021/10/23 07:15:29;;;;;;;4.60;1.20;;;;;;;5.80;nan;102011.53;5099462;27;20468;-83
2021/10/23 07:17:54;;;;;;;4.97;1.80;;;;;;;5.76;nan;102011.06;5087267;28;20061;-83
2021/10/23 07:20:21;;;;;;;8.43;1.48;;;;;;;5.86;nan;102008.94;5094397;28;20027;-83
2021/10/23 07:22:47;;;;;;;7.88;1.40;;;;;;;6.02;nan;102007.91;5098754;28;20085;-84
2021/10/23 07:25:12;;;;;;;8.00;1.27;;;;;;;6.14;nan;102009.09;5088294;28;20023;-84
2021/10/23 07:27:38;;;;;;;6.68;1.65;;;;;;;6.15;nan;102018.72;5102759;27;20077;-83
2021/10/23 07:30:09;;;;;;;6.47;1.83;;;;;;;6.27;nan;102027.03;5098422;28;20047;-85
2021/10/23 07:32:39;;;;;;;7.07;1.40;;;;;;;6.40;nan;102015.69;5098498;28;20023;-84
2021/10/23 07:35:07;;;;;;;15.05;1.73;;;;;;;6.44;nan;102040.94;5100028;28;20388;-84
2021/10/23 07:37:32;;;;;;;8.73;2.45;;;;;;;6.36;nan;102032.06;5078582;28;20539;-85
2021/10/23 07:40:03;;;;;;;9.30;2.45;;;;;;;6.23;nan;102034.56;5087679;28;20023;-83
2021/10/23 07:42:30;;;;;;;8.57;1.70;;;;;;;6.17;nan;102048.63;5086008;28;20451;-84
2021/10/23 07:44:57;;;;;;;10.90;2.15;;;;;;;6.10;nan;102062.84;5090411;28;20039;-83
2021/10/23 07:47:22;;;;;;;13.05;2.22;;;;;;;6.18;nan;102058.25;5103439;28;20031;-81
2021/10/23 07:49:48;;;;;;;13.57;1.98;;;;;;;6.37;nan;102059.50;5096915;28;20019;-83
2021/10/23 07:52:14;;;;;;;4.85;1.70;;;;;;;6.62;nan;102065.28;5084737;28;20023;-83
2021/10/23 07:54:42;;;;;;;5.88;1.10;;;;;;;6.82;nan;102070.78;5089048;28;20503;-84
2021/10/23 07:57:10;;;;;;;4.45;1.75;;;;;;;6.96;nan;102084.06;5087867;28;20084;-87
2021/10/23 07:59:36;;;;;;;11.05;1.58;;;;;;;7.03;nan;102088.63;5086074;28;20039;-83
2021/10/23 08:02:05;;;;;;;4.85;1.40;;;;;;;7.14;nan;102094.25;5105405;28;20016;-82
2021/10/23 08:04:31;;;;;;;16.67;1.85;;;;;;;7.15;nan;102093.22;5104410;28;20438;-83
2021/10/23 08:07:01;;;;;;;12.80;2.10;;;;;;;7.32;nan;102103.63;5101579;28;20046;-83
2021/10/23 08:09:31;;;;;;;10.95;2.10;;;;;;;7.40;nan;102101.66;5087796;28;20031;-83
2021/10/23 08:11:58;;;;;;;9.68;1.98;;;;;;;7.33;nan;102113.25;5080568;28;20172;-83
2021/10/23 08:14:24;;;;;;;13.07;1.50;;;;;;;7.34;nan;102128.25;5106155;28;20043;-82
2021/10/23 08:16:49;;;;;;;10.32;2.33;;;;;;;7.40;nan;102138.97;5103488;28;21740;-83
2021/10/23 08:19:15;;;;;;;11.70;1.80;;;;;;;7.51;nan;102118.94;5097957;28;20687;-83
2021/10/23 08:21:41;;;;;;;10.50;1.83;;;;;;;7.57;nan;102126.19;5088516;28;20023;-82
2021/10/23 08:24:12;;;;;;;7.90;1.98;;;;;;;7.50;nan;102141.28;5110037;28;20015;-85
2021/10/23 08:26:38;;;;;;;8.15;1.45;;;;;;;7.68;nan;102135.47;5085637;28;20015;-84
2021/10/23 08:29:03;;;;;;;9.70;1.65;;;;;;;7.85;nan;102136.81;5083613;28;20028;-83
2021/10/23 08:31:30;;;;;;;9.38;2.58;;;;;;;7.86;nan;102149.13;5086449;28;20035;-83
2021/10/23 08:33:57;;;;;;;9.15;1.55;;;;;;;8.02;nan;102148.84;5102732;28;20034;-82
2021/10/23 08:36:23;;;;;;;6.82;1.48;;;;;;;8.01;nan;102151.69;5085394;28;20374;-78
2021/10/23 08:38:50;;;;;;;7.38;1.50;;;;;;;8.03;nan;102153.16;5103143;28;20028;-79
2021/10/23 08:41:17;;;;;;;7.60;2.17;;;;;;;8.09;nan;102173.75;5098684;28;20474;-82
2021/10/23 08:43:43;;;;;;;5.78;1.35;;;;;;;8.15;nan;102154.25;5080489;28;20020;-85
2021/10/23 08:46:29;;;;;;;6.72;1.80;;;;;;;8.28;nan;102169.53;5097839;28;20098;-84
2021/10/23 08:48:55;;;;;;;7.40;1.52;;;;;;;8.48;nan;102169.63;5089933;28;20443;-83
2021/10/23 08:51:25;;;;;;;9.63;1.67;;;;;;;8.59;nan;102168.22;5088481;28;20032;-83
2021/10/23 08:53:51;;;;;;;9.40;1.42;;;;;;;8.58;nan;102166.56;5103775;28;20384;-82
2021/10/23 08:56:17;;;;;;;10.45;1.90;;;;;;;8.23;nan;102179.13;5095076;28;20096;-82
2021/10/23 08:58:43;;;;;;;6.05;1.83;;;;;;;8.30;nan;102172.00;5099882;28;20521;-83
2021/10/23 09:01:12;;;;;;;9.93;2.47;;;;;;;8.54;nan;102184.03;5107325;28;20098;-82
2021/10/23 09:03:40;;;;;;;6.30;1.58;;;;;;;8.83;nan;102177.56;5083385;28;20397;-83
2021/10/23 09:06:10;;;;;;;6.53;1.40;;;;;;;8.99;nan;102187.91;5105451;28;20020;-83
2021/10/23 09:08:36;;;;;;;11.27;1.58;;;;;;;9.06;nan;102188.72;5089981;28;20028;-82
2021/10/23 09:11:01;;;;;;;7.07;1.75;;;;;;;9.05;nan;102203.13;5102411;28;20077;-83
2021/10/23 09:13:30;;;;;;;12.77;2.22;;;;;;;8.84;nan;102196.06;5106120;28;20024;-81
2021/10/23 09:15:56;;;;;;;11.43;2.33;;;;;;;8.91;nan;102185.38;5088819;28;20043;-82
2021/10/23 09:18:40;;;;;;;12.00;1.77;;;;;;;9.00;nan;102192.22;5087678;28;20065;-82
2021/10/23 09:21:18;;;;;;;6.70;1.60;;;;;;;9.01;nan;102207.22;5088965;28;20092;-82
2021/10/23 09:23:44;;;;;;;7.57;1.52;;;;;;;9.05;nan;102211.97;5092514;28;20115;-85
2021/10/23 09:26:28;;;;;;;9.35;2.22;;;;;;;9.16;nan;102221.25;5083362;28;20103;-82
2021/10/23 09:29:20;;;;;;;10.75;1.63;;;;;;;9.18;nan;102227.22;5090769;28;20119;-82
2021/10/23 09:31:53;;;;;;;9.85;2.00;;;;;;;9.32;nan;102222.69;5091891;28;20092;-82
2021/10/23 09:34:24;;;;;;;4.45;1.38;;;;;;;9.42;nan;102224.97;5106388;28;20054;-83
2021/10/23 09:36:54;;;;;;;12.43;2.13;;;;;;;9.47;nan;102231.34;5106847;28;20042;-80
2021/10/23 09:39:29;;;;;;;10.85;1.95;;;;;;;9.50;nan;102238.16;5103369;28;20059;-80
2021/10/23 09:42:17;;;;;;;6.32;1.80;;;;;;;9.81;nan;102224.16;5084984;28;20024;-80
2021/10/23 09:45:02;;;;;;;7.65;2.25;;;;;;;10.00;nan;102236.72;5099200;28;20031;-80
2021/10/23 09:47:32;;;;;;;5.53;1.63;;;;;;;10.36;nan;102217.50;5092890;28;20031;-81
2021/10/23 09:50:14;;;;;;;7.45;1.90;;;;;;;10.40;nan;102247.38;5090525;28;20059;-77
2021/10/23 09:52:59;;;;;;;4.63;1.40;;;;;;;10.25;nan;102242.28;5097418;28;20043;-77
2021/10/23 09:55:45;;;;;;;;;;;;;;;10.11;nan;102264.72;5086771;28;20051;-80
2021/10/23 09:58:17;;;;;;;12.70;1.77;;;;;;;10.21;nan;102252.56;5076919;28;20274;-80
2021/10/23 10:00:43;;;;;;;8.88;1.92;;;;;;;10.12;nan;102247.63;5083624;28;20032;-81
2021/10/23 10:03:10;;;;;;;9.45;2.00;;;;;;;9.97;nan;102262.06;5088091;28;20032;-81
2021/10/23 10:05:36;;;;;;;11.57;1.52;;;;;;;9.94;nan;102269.69;5089000;28;20469;-81
2021/10/23 10:08:09;;;;;;;5.95;1.67;;;;;;;9.74;nan;102276.88;5091420;28;20481;-81
2021/10/23 10:10:38;;;;;;;12.43;3.28;;;;;;;9.63;nan;102272.97;5105357;28;20020;-80
2021/10/23 10:13:04;;;;;;;9.95;1.85;;;;;;;9.78;nan;102268.22;5089769;28;20020;-82
2021/10/23 10:15:30;;;;;;;13.98;2.60;;;;;;;9.78;nan;102272.75;5089480;28;20068;-80
2021/10/23 10:18:03;;;;;;;11.13;1.60;;;;;;;9.82;nan;102272.13;5091604;28;20031;-81
2021/10/23 10:20:30;;;;;;;8.13;2.05;;;;;;;9.90;nan;102277.31;5088088;28;20032;-80
2021/10/23 10:22:57;;;;;;;7.63;2.35;;;;;;;10.01;nan;102281.19;5104285;28;20154;-81
2021/10/23 10:25:24;;;;;;;5.88;1.52;;;;;;;10.43;nan;102279.97;5100522;28;20490;-81
2021/10/23 10:27:53;;;;;;;8.82;1.42;;;;;;;10.47;nan;102288.41;5105488;28;20144;-81
2021/10/23 10:30:34;;;;;;;17.13;1.77;;;;;;;10.54;nan;102305.28;5087291;28;20070;-80
2021/10/23 10:33:35;;;;;;;7.55;1.52;;;;;;;10.48;nan;102293.53;5101537;28;20050;-78
2021/10/23 10:39:40;;;;;;;8.02;2.20;;;;;;;10.58;nan;102295.78;5101978;28;20112;-82
2021/10/23 10:45:41;;;;;;;5.63;1.42;;;;;;;11.01;nan;102312.13;5047619;28;20028;-81
2021/10/23 10:48:07;;;;;;;6.60;1.75;;;;;;;11.18;nan;102301.75;5031262;28;20056;-81
2021/10/23 10:50:38;;;;;;;5.65;1.45;;;;;;;11.27;nan;102305.00;5058813;28;20066;-81
2021/10/23 10:53:19;;;;;;;13.27;1.88;;;;;;;11.41;nan;102306.56;5084441;28;20027;-81
2021/10/23 10:55:58;;;;;;;10.23;1.92;;;;;;;11.55;nan;102313.50;5087877;28;20742;-81
2021/10/23 10:58:52;;;;;;;4.60;1.52;;;;;;;11.46;nan;102322.84;5092699;28;20776;-81
2021/10/23 11:01:31;;;;;;;6.00;1.90;;;;;;;11.70;nan;102323.94;5097904;28;20470;-82
2021/10/23 11:04:02;;;;;;;13.70;2.00;;;;;;;11.91;nan;102317.44;5102422;27;20079;-82
2021/10/23 11:06:46;;;;;;;4.15;1.60;;;;;;;11.69;nan;102333.06;5082887;28;20026;-82
2021/10/23 11:09:20;;;;;;;7.40;1.77;;;;;;;11.54;nan;102327.97;5081957;28;20031;-82
2021/10/23 11:11:46;;;;;;;9.55;2.00;;;;;;;11.32;nan;102334.72;5096396;27;20027;-82
2021/10/23 11:16:48;;;;;;;10.02;2.78;;;;;;;12.73;nan;102331.53;5079396;28;20605;-82
2021/10/23 11:19:43;;;;;;;8.93;2.53;;;;;;;13.83;nan;102348.38;5057907;28;20508;-83
2021/10/23 11:22:35;;;;;;;6.43;1.98;;;;;;;14.85;nan;102353.44;5062068;28;20654;-81
2021/10/23 11:25:03;;;;;;;6.07;1.70;;;;;;;15.83;nan;102342.44;5065965;28;20028;-81
2021/10/23 11:27:32;;;;;;;14.80;2.22;;;;;;;15.60;nan;102342.53;5067516;28;20032;-82
2021/10/23 11:30:18;;;;;;;8.95;1.50;;;;;;;15.41;nan;102353.50;5066859;28;20031;-82
2021/10/23 11:33:05;;;;;;;9.82;1.88;;;;;;;15.36;nan;102342.63;5067537;28;20028;-82
2021/10/23 11:35:51;;;;;;;4.80;1.38;;;;;;;15.62;nan;102351.25;5064769;28;20729;-81
2021/10/23 11:38:19;;;;;;;9.57;1.90;;;;;;;15.99;nan;102343.50;5065072;28;20032;-82
2021/10/23 11:40:44;;;;;;;5.55;1.80;;;;;;;15.47;nan;102361.72;5065187;28;20118;-82
2021/10/23 11:43:15;;;;;;;12.73;2.10;;;;;;;15.20;nan;102354.19;5064722;28;20146;-81
2021/10/23 11:45:42;;;;;;;9.55;1.48;;;;;;;13.99;nan;102363.84;5066232;28;20541;-82
2021/10/23 11:48:10;;;;;;;7.03;1.50;;;;;;;15.84;nan;102357.59;5066724;28;20031;-82
2021/10/23 11:50:40;;;;;;;8.80;2.13;;;;;;;15.69;nan;102360.00;5065423;28;20082;-82
2021/10/23 11:53:14;;;;;;;5.88;1.70;;;;;;;14.29;nan;102381.81;5081755;28;20135;-81
2021/10/23 11:55:45;;;;;;;4.00;1.50;;;;;;;13.53;nan;102372.59;5064209;28;20024;-82
2021/10/23 11:58:26;;;;;;;7.70;2.13;;;;;;;14.06;nan;102382.63;5086682;28;20050;-82
2021/10/23 12:01:06;;;;;;;6.35;1.55;;;;;;;13.16;nan;102380.72;5059699;28;20016;-82